Time;durP1;ratioP1;P1;durP2;ratioP2;P2;SDS_P1;SDS_P2;PMS_P1;PMS_P2;Temp;Humidity;BMP_temperature;BMP_pressure;BME280_temperature;BME280_humidity;BME280_pressure;Samples;Min_cycle;Max_cycle;Signal;HPM_P1;HPM_P2
2023/04/02 00:01:40;;;;;;;;;;;;;;;;;;5056164;28;20001;-67
2023/04/02 00:04:07;;;;;;;;;;;;;;;;;;5055858;28;20009;-68
2023/04/02 00:06:33;;;;;;;;;;;;;;;;;;5056109;28;19952;-66
2023/04/02 00:09:03;;;;;;;;;;;;;;;;;;5055708;28;20037;-68
2023/04/02 00:11:30;;;;;;;;;;;;;;;;;;5055759;28;20005;-67
2023/04/02 00:13:56;;;;;;;;;;;;;;;;;;5055675;28;20420;-66
2023/04/02 00:16:22;;;;;;;;;;;;;;;;;;5056200;28;20005;-67
2023/04/02 00:18:47;;;;;;;;;;;;;;;;;;5055832;28;19958;-67
2023/04/02 00:21:13;;;;;;;;;;;;;;;;;;5055353;28;19999;-68
2023/04/02 00:23:39;;;;;;;;;;;;;;;;;;5056071;28;19955;-69
2023/04/02 00:26:05;;;;;;;;;;;;;;;;;;5055736;28;19961;-68
2023/04/02 00:28:31;;;;;;;;;;;;;;;;;;5055512;28;20029;-67
2023/04/02 00:30:57;;;;;;;;;;;;;;;;;;5055400;28;19956;-66
2023/04/02 00:33:23;;;;;;;;;;;;;;;;;;5055871;28;20045;-68
2023/04/02 00:35:49;;;;;;;;;;;;;;;;;;5055575;28;19960;-69
2023/04/02 00:38:15;;;;;;;;;;;;;;;;;;5055851;28;19999;-68
2023/04/02 00:40:41;;;;;;;;;;;;;;;;;;5055208;28;19963;-68
2023/04/02 00:43:07;;;;;;;;;;;;;;;;;;5055451;28;19956;-69
2023/04/02 00:45:33;;;;;;;;;;;;;;;;;;5055110;28;19962;-67
2023/04/02 00:47:58;;;;;;;;;;;;;;;;;;5055337;28;20021;-69
2023/04/02 00:50:24;;;;;;;;;;;;;;;;;;5054949;28;19978;-67
2023/04/02 00:52:50;;;;;;;;;;;;;;;;;;5055011;28;19962;-69
2023/04/02 00:55:17;;;;;;;;;;;;;;;;;;5054976;28;19956;-67
2023/04/02 00:57:43;;;;;;;;;;;;;;;;;;5055025;28;19982;-68
2023/04/02 01:00:10;;;;;;;;;;;;;;;;;;5055099;28;20419;-67
2023/04/02 01:02:39;;;;;;;;;;;;;;;;;;5055074;28;19961;-67
2023/04/02 01:05:05;;;;;;;;;;;;;;;;;;5054720;28;19955;-66
2023/04/02 01:07:31;;;;;;;;;;;;;;;;;;5053170;28;20439;-67
2023/04/02 01:09:57;;;;;;;;;;;;;;;;;;5054865;28;19976;-68
2023/04/02 01:12:23;;;;;;;;;;;;;;;;;;5054553;28;19975;-66
2023/04/02 01:14:49;;;;;;;;;;;;;;;;;;5054534;28;20076;-68
2023/04/02 01:17:17;;;;;;;;;;;;;;;;;;5053237;28;20318;-69
2023/04/02 01:19:43;;;;;;;;;;;;;;;;;;5055007;28;20403;-66
2023/04/02 01:22:09;;;;;;;;;;;;;;;;;;5054198;28;19991;-66
2023/04/02 01:24:38;;;;;;;;;;;;;;;;;;5054641;28;19961;-69
2023/04/02 01:27:04;;;;;;;;;;;;;;;;;;5054319;28;19961;-67
2023/04/02 01:29:30;;;;;;;;;;;;;;;;;;5054095;28;20006;-66
2023/04/02 01:31:56;;;;;;;;;;;;;;;;;;5054221;28;20404;-66
2023/04/02 01:34:22;;;;;;;;;;;;;;;;;;5054414;28;19965;-68
2023/04/02 01:36:48;;;;;;;;;;;;;;;;;;5054407;28;19958;-68
2023/04/02 01:39:14;;;;;;;;;;;;;;;;;;5054712;28;19954;-68
2023/04/02 01:41:40;;;;;;;;;;;;;;;;;;5054369;28;20003;-69
2023/04/02 01:44:06;;;;;;;;;;;;;;;;;;5054051;28;19956;-68
2023/04/02 01:46:32;;;;;;;;;;;;;;;;;;5054297;28;20008;-68
2023/04/02 01:48:58;;;;;;;;;;;;;;;;;;5053865;28;19975;-68
2023/04/02 01:51:24;;;;;;;;;;;;;;;;;;5054493;28;19961;-67
2023/04/02 01:53:50;;;;;;;;;;;;;;;;;;5053885;28;19954;-68
2023/04/02 01:56:16;;;;;;;;;;;;;;;;;;5054416;28;19962;-67
2023/04/02 01:58:42;;;;;;;;;;;;;;;;;;5054080;28;19955;-67
2023/04/02 02:01:08;;;;;;;;;;;;;;;;;;5053758;28;19962;-67
2023/04/02 02:03:34;;;;;;;;;;;;;;;;;;5053751;28;20005;-68
2023/04/02 02:06:00;;;;;;;;;;;;;;;;;;5053757;28;19989;-67
2023/04/02 02:08:26;;;;;;;;;;;;;;;;;;5053886;28;20004;-68
2023/04/02 02:10:52;;;;;;;;;;;;;;;;;;5053689;28;19973;-67
2023/04/02 02:13:18;;;;;;;;;;;;;;;;;;5053642;28;19963;-68
2023/04/02 02:15:44;;;;;;;;;;;;;;;;;;5053652;28;19955;-68
2023/04/02 02:18:10;;;;;;;;;;;;;;;;;;5053573;28;19994;-67
2023/04/02 02:20:36;;;;;;;;;;;;;;;;;;5053568;28;19999;-68
2023/04/02 02:23:03;;;;;;;;;;;;;;;;;;5053505;28;20008;-68
2023/04/02 02:25:28;;;;;;;;;;;;;;;;;;5053488;28;19957;-67
2023/04/02 02:27:55;;;;;;;;;;;;;;;;;;5053502;28;20097;-67
2023/04/02 02:30:21;;;;;;;;;;;;;;;;;;5053298;28;19987;-66
2023/04/02 02:32:47;;;;;;;;;;;;;;;;;;5052159;28;20385;-67
2023/04/02 02:35:13;;;;;;;;;;;;;;;;;;5054019;28;19954;-68
2023/04/02 02:37:39;;;;;;;;;;;;;;;;;;5053703;28;20010;-67
2023/04/02 02:40:05;;;;;;;;;;;;;;;;;;5053417;28;19961;-68
2023/04/02 02:42:31;;;;;;;;;;;;;;;;;;5053372;28;20037;-66
2023/04/02 02:44:56;;;;;;;;;;;;;;;;;;5053616;28;19956;-67
2023/04/02 02:47:22;;;;;;;;;;;;;;;;;;5053309;28;20005;-66
2023/04/02 02:49:48;;;;;;;;;;;;;;;;;;5053513;28;19979;-67
2023/04/02 02:52:15;;;;;;;;;;;;;;;;;;5053526;28;19960;-68
2023/04/02 02:54:40;;;;;;;;;;;;;;;;;;5053814;28;20054;-67
2023/04/02 02:57:06;;;;;;;;;;;;;;;;;;5053267;28;20429;-67
2023/04/02 02:59:32;;;;;;;;;;;;;;;;;;5053195;28;19978;-68
2023/04/02 03:01:58;;;;;;;;;;;;;;;;;;5053169;28;19955;-67
2023/04/02 03:04:24;;;;;;;;;;;;;;;;;;5053080;28;20045;-66
2023/04/02 03:06:51;;;;;;;;;;;;;;;;;;5053714;28;19961;-68
2023/04/02 03:09:17;;;;;;;;;;;;;;;;;;5053096;28;20013;-67
2023/04/02 03:11:43;;;;;;;;;;;;;;;;;;5053326;28;20012;-68
2023/04/02 03:14:09;;;;;;;;;;;;;;;;;;5053095;28;20054;-67
2023/04/02 03:16:35;;;;;;;;;;;;;;;;;;5053571;28;19995;-67
2023/04/02 03:19:01;;;;;;;;;;;;;;;;;;5053305;28;20042;-68
2023/04/02 03:21:26;;;;;;;;;;;;;;;;;;5054817;28;19990;-68
2023/04/02 03:23:52;;;;;;;;;;;;;;;;;;5056635;28;20006;-67
2023/04/02 03:26:18;;;;;;;;;;;;;;;;;;5056907;28;19958;-67
2023/04/02 03:28:44;;;;;;;;;;;;;;;;;;5056456;28;20018;-68
2023/04/02 03:31:10;;;;;;;;;;;;;;;;;;5056527;28;20450;-68
2023/04/02 03:33:36;;;;;;;;;;;;;;;;;;5056479;28;19954;-68
2023/04/02 03:36:02;;;;;;;;;;;;;;;;;;5056691;28;19987;-68
2023/04/02 03:38:28;;;;;;;;;;;;;;;;;;5056931;28;19961;-67
2023/04/02 03:40:54;;;;;;;;;;;;;;;;;;5056604;28;19960;-67
2023/04/02 03:43:20;;;;;;;;;;;;;;;;;;5056288;28;20044;-68
2023/04/02 03:45:46;;;;;;;;;;;;;;;;;;5056245;28;20346;-67
2023/04/02 03:48:12;;;;;;;;;;;;;;;;;;5056474;28;19959;-68
2023/04/02 03:50:38;;;;;;;;;;;;;;;;;;5056080;28;19978;-67
2023/04/02 03:53:03;;;;;;;;;;;;;;;;;;5056160;28;20005;-68
2023/04/02 03:55:30;;;;;;;;;;;;;;;;;;5056393;28;19955;-67
2023/04/02 03:57:56;;;;;;;;;;;;;;;;;;5056344;28;19963;-67
2023/04/02 04:00:22;;;;;;;;;;;;;;;;;;5056559;28;19955;-68
2023/04/02 04:02:48;;;;;;;;;;;;;;;;;;5055922;28;20388;-67
2023/04/02 04:05:14;;;;;;;;;;;;;;;;;;5056163;28;20002;-68
2023/04/02 04:07:40;;;;;;;;;;;;;;;;;;5055907;28;19961;-67
2023/04/02 04:10:06;;;;;;;;;;;;;;;;;;5055768;28;19974;-68
2023/04/02 04:12:32;;;;;;;;;;;;;;;;;;5056114;28;19981;-68
2023/04/02 04:14:58;;;;;;;;;;;;;;;;;;5056042;28;19997;-67
2023/04/02 04:17:28;;;;;;;;;;;;;;;;;;5055984;28;19962;-67
2023/04/02 04:19:55;;;;;;;;;;;;;;;;;;5055958;28;19962;-68
2023/04/02 04:22:29;;;;;;;;;;;;;;;;;;5055229;28;19990;-67
2023/04/02 04:24:56;;;;;;;;;;;;;;;;;;5055574;28;19959;-68
2023/04/02 04:27:21;;;;;;;;;;;;;;;;;;5056073;28;20458;-68
2023/04/02 04:29:47;;;;;;;;;;;;;;;;;;5055288;28;20036;-66
2023/04/02 04:32:15;;;;;;;;;;;;;;;;;;5054916;28;19955;-67
2023/04/02 04:34:45;;;;;;;;;;;;;;;;;;5054885;28;19959;-67
2023/04/02 04:37:20;;;;;;;;;;;;;;;;;;5054036;28;19957;-68
2023/04/02 04:39:46;;;;;;;;;;;;;;;;;;5053672;28;19962;-66
2023/04/02 04:42:12;;;;;;;;;;;;;;;;;;5055241;28;19968;-68
2023/04/02 04:44:38;;;;;;;;;;;;;;;;;;5055734;28;19955;-67
2023/04/02 04:47:04;;;;;;;;;;;;;;;;;;5055171;28;19998;-67
2023/04/02 04:49:30;;;;;;;;;;;;;;;;;;5055011;28;19974;-68
2023/04/02 04:51:55;;;;;;;;;;;;;;;;;;5055048;28;19961;-67
2023/04/02 04:54:21;;;;;;;;;;;;;;;;;;5055277;28;19959;-68
2023/04/02 04:56:47;;;;;;;;;;;;;;;;;;5054947;28;19955;-68
2023/04/02 04:59:13;;;;;;;;;;;;;;;;;;5055173;28;19955;-68
2023/04/02 05:01:39;;;;;;;;;;;;;;;;;;5055099;28;19996;-67
2023/04/02 05:04:05;;;;;;;;;;;;;;;;;;5055065;28;20296;-67
2023/04/02 05:06:31;;;;;;;;;;;;;;;;;;5054736;28;20005;-66
2023/04/02 05:08:57;;;;;;;;;;;;;;;;;;5054905;28;19975;-67
2023/04/02 05:11:23;;;;;;;;;;;;;;;;;;5054917;28;20458;-67
2023/04/02 05:13:49;;;;;;;;;;;;;;;;;;5054614;28;20005;-69
2023/04/02 05:16:15;;;;;;;;;;;;;;;;;;5055100;28;20398;-68
2023/04/02 05:18:40;;;;;;;;;;;;;;;;;;5054481;28;20407;-68
2023/04/02 05:21:06;;;;;;;;;;;;;;;;;;5054254;28;20125;-68
2023/04/02 05:23:32;;;;;;;;;;;;;;;;;;5054671;28;19961;-67
2023/04/02 05:25:58;;;;;;;;;;;;;;;;;;5054366;28;19961;-66
2023/04/02 05:28:24;;;;;;;;;;;;;;;;;;5054804;28;20395;-68
2023/04/02 05:30:51;;;;;;;;;;;;;;;;;;5054182;28;19971;-68
2023/04/02 05:33:17;;;;;;;;;;;;;;;;;;5054830;28;20424;-67
2023/04/02 05:35:43;;;;;;;;;;;;;;;;;;5054254;28;19998;-67
2023/04/02 05:38:09;;;;;;;;;;;;;;;;;;5054423;28;19955;-67
2023/04/02 05:40:35;;;;;;;;;;;;;;;;;;5054978;28;19955;-67
2023/04/02 05:43:01;;;;;;;;;;;;;;;;;;5054410;28;19955;-67
2023/04/02 05:45:28;;;;;;;;;;;;;;;;;;5053938;28;19960;-68
2023/04/02 05:47:56;;;;;;;;;;;;;;;;;;5054610;28;19954;-68
2023/04/02 05:50:22;;;;;;;;;;;;;;;;;;5053887;28;19980;-67
2023/04/02 05:52:47;;;;;;;;;;;;;;;;;;5053921;28;20476;-68
2023/04/02 05:55:13;;;;;;;;;;;;;;;;;;5054408;28;20404;-68
2023/04/02 05:57:39;;;;;;;;;;;;;;;;;;5054100;28;19959;-67
2023/04/02 06:00:05;;;;;;;;;;;;;;;;;;5054107;28;19962;-68
2023/04/02 06:02:31;;;;;;;;;;;;;;;;;;5053769;28;19967;-67
2023/04/02 06:04:57;;;;;;;;;;;;;;;;;;5054304;28;19954;-68
2023/04/02 06:07:23;;;;;;;;;;;;;;;;;;5053750;28;19978;-68
2023/04/02 06:09:49;;;;;;;;;;;;;;;;;;5054165;28;19974;-68
2023/04/02 06:12:15;;;;;;;;;;;;;;;;;;5053725;28;19982;-67
2023/04/02 06:14:41;;;;;;;;;;;;;;;;;;5053647;28;19955;-68
2023/04/02 06:17:06;;;;;;;;;;;;;;;;;;5053920;28;20049;-67
2023/04/02 06:19:32;;;;;;;;;;;;;;;;;;5053873;28;19983;-67
2023/04/02 06:21:58;;;;;;;;;;;;;;;;;;5053199;28;19991;-69
2023/04/02 06:24:24;;;;;;;;;;;;;;;;;;5053560;28;19954;-67
2023/04/02 06:26:50;;;;;;;;;;;;;;;;;;5053557;28;19954;-68
2023/04/02 06:29:16;;;;;;;;;;;;;;;;;;5053374;28;20478;-68
2023/04/02 06:31:42;;;;;;;;;;;;;;;;;;5053526;28;19955;-66
2023/04/02 06:34:08;;;;;;;;;;;;;;;;;;5053489;28;20030;-68
2023/04/02 06:36:34;;;;;;;;;;;;;;;;;;5053433;28;19962;-67
2023/04/02 06:39:00;;;;;;;;;;;;;;;;;;5053676;28;19960;-68
2023/04/02 06:41:26;;;;;;;;;;;;;;;;;;5053946;28;19959;-68
2023/04/02 06:43:51;;;;;;;;;;;;;;;;;;5053393;28;19959;-67
2023/04/02 06:46:18;;;;;;;;;;;;;;;;;;5053365;28;20054;-67
2023/04/02 06:48:43;;;;;;;;;;;;;;;;;;5053260;28;19976;-68
2023/04/02 06:51:09;;;;;;;;;;;;;;;;;;5053590;28;19962;-67
2023/04/02 06:53:35;;;;;;;;;;;;;;;;;;5053298;28;20415;-66
2023/04/02 06:56:01;;;;;;;;;;;;;;;;;;5054999;28;20075;-67
2023/04/02 06:58:27;;;;;;;;;;;;;;;;;;5057417;28;19958;-68
2023/04/02 07:00:53;;;;;;;;;;;;;;;;;;5057654;28;19962;-67
2023/04/02 07:03:19;;;;;;;;;;;;;;;;;;5057102;28;19954;-67
2023/04/02 07:05:45;;;;;;;;;;;;;;;;;;5057343;28;19954;-68
2023/04/02 07:08:11;;;;;;;;;;;;;;;;;;5057279;28;20047;-67
2023/04/02 07:10:36;;;;;;;;;;;;;;;;;;5056857;28;20331;-66
2023/04/02 07:13:03;;;;;;;;;;;;;;;;;;5057190;28;19956;-68
2023/04/02 07:15:29;;;;;;;;;;;;;;;;;;5056813;28;19961;-68
2023/04/02 07:17:57;;;;;;;;;;;;;;;;;;5057089;28;19956;-68
2023/04/02 07:20:23;;;;;;;;;;;;;;;;;;5056824;28;20416;-69
2023/04/02 07:22:50;;;;;;;;;;;;;;;;;;5057305;28;20507;-67
2023/04/02 07:25:16;;;;;;;;;;;;;;;;;;5056659;28;20437;-69
2023/04/02 07:27:42;;;;;;;;;;;;;;;;;;5056628;28;19958;-68
2023/04/02 07:30:08;;;;;;;;;;;;;;;;;;5056687;28;19987;-68
2023/04/02 07:32:33;;;;;;;;;;;;;;;;;;5057123;28;19998;-68
2023/04/02 07:34:59;;;;;;;;;;;;;;;;;;5057314;28;19956;-67
2023/04/02 07:37:26;;;;;;;;;;;;;;;;;;5056461;28;19955;-69
2023/04/02 07:39:51;;;;;;;;;;;;;;;;;;5056695;28;19959;-69
2023/04/02 07:42:17;;;;;;;;;;;;;;;;;;5056339;28;19977;-67
2023/04/02 07:44:43;;;;;;;;;;;;;;;;;;5056593;28;19981;-68
2023/04/02 07:47:09;;;;;;;;;;;;;;;;;;5056268;28;19999;-67
2023/04/02 07:49:35;;;;;;;;;;;;;;;;;;5054897;28;20489;-68
2023/04/02 07:52:01;;;;;;;;;;;;;;;;;;5056734;28;20055;-66
2023/04/02 07:54:27;;;;;;;;;;;;;;;;;;5056143;28;19956;-67
2023/04/02 07:56:53;;;;;;;;;;;;;;;;;;5056640;28;20395;-67
2023/04/02 07:59:19;;;;;;;;;;;;;;;;;;5056047;28;19963;-68
2023/04/02 08:01:45;;;;;;;;;;;;;;;;;;5056273;28;20034;-69
2023/04/02 08:04:11;;;;;;;;;;;;;;;;;;5055971;28;20001;-67
2023/04/02 08:06:36;;;;;;;;;;;;;;;;;;5055582;28;20422;-66
2023/04/02 08:09:02;;;;;;;;;;;;;;;;;;5054849;28;19976;-66
2023/04/02 08:11:28;;;;;;;;;;;;;;;;;;5055855;28;20316;-67
2023/04/02 08:13:54;;;;;;;;;;;;;;;;;;5056074;28;19956;-68
2023/04/02 08:16:21;;;;;;;;;;;;;;;;;;5055682;28;19956;-67
2023/04/02 08:18:47;;;;;;;;;;;;;;;;;;5055689;28;19954;-66
2023/04/02 08:21:13;;;;;;;;;;;;;;;;;;5055469;28;20413;-68
2023/04/02 08:23:39;;;;;;;;;;;;;;;;;;5055826;28;19965;-68
2023/04/02 08:26:05;;;;;;;;;;;;;;;;;;5055543;28;19956;-68
2023/04/02 08:28:31;;;;;;;;;;;;;;;;;;5055346;28;20069;-67
2023/04/02 08:30:57;;;;;;;;;;;;;;;;;;5055451;28;19960;-68
2023/04/02 08:33:23;;;;;;;;;;;;;;;;;;5055684;28;19959;-67
2023/04/02 08:35:49;;;;;;;;;;;;;;;;;;5055353;28;20036;-68
2023/04/02 08:38:15;;;;;;;;;;;;;;;;;;5055599;28;19954;-66
2023/04/02 08:40:41;;;;;;;;;;;;;;;;;;5055262;28;19955;-67
2023/04/02 08:43:07;;;;;;;;;;;;;;;;;;5055522;28;20021;-67
2023/04/02 08:45:32;;;;;;;;;;;;;;;;;;5055986;28;20399;-67
2023/04/02 08:48:00;;;;;;;;;;;;;;;;;;5055399;28;19956;-68
2023/04/02 08:50:26;;;;;;;;;;;;;;;;;;5054988;28;19980;-68
2023/04/02 08:52:52;;;;;;;;;;;;;;;;;;5055315;28;19959;-68
2023/04/02 08:55:18;;;;;;;;;;;;;;;;;;5054970;28;20415;-69
2023/04/02 08:57:45;;;;;;;;;;;;;;;;;;5054932;28;19955;-69
2023/04/02 09:00:11;;;;;;;;;;;;;;;;;;5054832;28;19961;-67
2023/04/02 09:02:37;;;;;;;;;;;;;;;;;;5055115;28;20362;-69
2023/04/02 09:05:02;;;;;;;;;;;;;;;;;;5055074;28;20002;-69
2023/04/02 09:07:28;;;;;;;;;;;;;;;;;;5054782;28;19956;-67
2023/04/02 09:09:55;;;;;;;;;;;;;;;;;;5054919;28;20335;-69
2023/04/02 09:12:21;;;;;;;;;;;;;;;;;;5054640;28;19961;-68
2023/04/02 09:14:47;;;;;;;;;;;;;;;;;;5054863;28;20043;-67
2023/04/02 09:17:12;;;;;;;;;;;;;;;;;;5054812;28;20005;-67
2023/04/02 09:19:38;;;;;;;;;;;;;;;;;;5054374;28;19967;-68
2023/04/02 09:22:05;;;;;;;;;;;;;;;;;;5054101;28;19995;-68
2023/04/02 09:24:31;;;;;;;;;;;;;;;;;;5054674;28;19956;-68
2023/04/02 09:26:56;;;;;;;;;;;;;;;;;;5054633;28;20421;-67
2023/04/02 09:29:24;;;;;;;;;;;;;;;;;;5054162;28;20017;-68
2023/04/02 09:31:50;;;;;;;;;;;;;;;;;;5054560;28;19956;-68
2023/04/02 09:34:16;;;;;;;;;;;;;;;;;;5054196;28;19956;-67
2023/04/02 09:36:42;;;;;;;;;;;;;;;;;;5054196;28;20106;-67
2023/04/02 09:39:08;;;;;;;;;;;;;;;;;;5054691;28;20416;-68
2023/04/02 09:41:34;;;;;;;;;;;;;;;;;;5054422;28;20465;-68
2023/04/02 09:44:00;;;;;;;;;;;;;;;;;;5054340;28;19960;-68
2023/04/02 09:46:26;;;;;;;;;;;;;;;;;;5054026;28;19981;-68
2023/04/02 09:48:52;;;;;;;;;;;;;;;;;;5053915;28;19979;-68
2023/04/02 09:51:20;;;;;;;;;;;;;;;;;;5054010;28;20048;-68
2023/04/02 09:53:47;;;;;;;;;;;;;;;;;;5053931;28;19953;-67
2023/04/02 09:56:13;;;;;;;;;;;;;;;;;;5054489;28;19956;-68
2023/04/02 09:58:39;;;;;;;;;;;;;;;;;;5053811;28;19967;-67
2023/04/02 10:01:07;;;;;;;;;;;;;;;;;;5054359;28;20072;-68
2023/04/02 10:03:33;;;;;;;;;;;;;;;;;;5054047;28;20426;-67
2023/04/02 10:05:59;;;;;;;;;;;;;;;;;;5054016;28;20004;-67
2023/04/02 10:08:26;;;;;;;;;;;;;;;;;;5053700;28;19960;-68
2023/04/02 10:10:52;;;;;;;;;;;;;;;;;;5054158;28;19982;-68
2023/04/02 10:13:18;;;;;;;;;;;;;;;;;;5053942;28;19954;-67
2023/04/02 10:15:44;;;;;;;;;;;;;;;;;;5053664;28;19954;-68
2023/04/02 10:18:10;;;;;;;;;;;;;;;;;;5053858;28;20046;-68
2023/04/02 10:20:38;;;;;;;;;;;;;;;;;;5053426;28;19993;-67
2023/04/02 10:23:04;;;;;;;;;;;;;;;;;;5053540;28;20013;-68
2023/04/02 10:25:31;;;;;;;;;;;;;;;;;;5053560;28;19960;-66
2023/04/02 10:27:56;;;;;;;;;;;;;;;;;;5051997;28;19957;-67
2023/04/02 10:30:22;;;;;;;;;;;;;;;;;;5053485;28;19984;-67
2023/04/02 10:32:48;;;;;;;;;;;;;;;;;;5058208;28;20403;-67
2023/04/02 10:35:14;;;;;;;;;;;;;;;;;;5057914;28;19956;-68
2023/04/02 10:37:40;;;;;;;;;;;;;;;;;;5057899;28;20379;-68
2023/04/02 10:40:09;;;;;;;;;;;;;;;;;;5057531;28;19956;-68
2023/04/02 10:42:35;;;;;;;;;;;;;;;;;;5057476;28;19955;-68
2023/04/02 10:45:01;;;;;;;;;;;;;;;;;;5056112;28;20051;-68
2023/04/02 10:47:27;;;;;;;;;;;;;;;;;;5057923;28;19962;-67
2023/04/02 10:49:53;;;;;;;;;;;;;;;;;;5057258;28;19976;-68
2023/04/02 10:52:20;;;;;;;;;;;;;;;;;;5057317;28;19956;-68
2023/04/02 10:54:45;;;;;;;;;;;;;;;;;;5057493;28;19983;-67
2023/04/02 10:57:11;;;;;;;;;;;;;;;;;;5057221;28;19990;-69
2023/04/02 10:59:37;;;;;;;;;;;;;;;;;;5057154;28;20324;-68
2023/04/02 11:02:03;;;;;;;;;;;;;;;;;;5057404;28;19956;-68
2023/04/02 11:04:29;;;;;;;;;;;;;;;;;;5057088;28;19956;-68
2023/04/02 11:06:55;;;;;;;;;;;;;;;;;;5057293;28;20043;-68
2023/04/02 11:09:22;;;;;;;;;;;;;;;;;;5056871;28;20061;-68
2023/04/02 11:11:48;;;;;;;;;;;;;;;;;;5057213;28;20481;-68
2023/04/02 11:14:14;;;;;;;;;;;;;;;;;;5057183;28;19999;-67
2023/04/02 11:16:40;;;;;;;;;;;;;;;;;;5055635;28;19960;-69
2023/04/02 11:19:06;;;;;;;;;;;;;;;;;;5057098;28;19962;-67
2023/04/02 11:21:32;;;;;;;;;;;;;;;;;;5056597;28;19994;-69
2023/04/02 11:23:58;;;;;;;;;;;;;;;;;;5057253;28;20328;-68
2023/04/02 11:26:25;;;;;;;;;;;;;;;;;;5056684;28;20485;-69
2023/04/02 11:28:51;;;;;;;;;;;;;;;;;;5056476;28;19990;-67
2023/04/02 11:31:17;;;;;;;;;;;;;;;;;;5056856;28;20038;-68
2023/04/02 11:33:43;;;;;;;;;;;;;;;;;;5056525;28;19962;-69
2023/04/02 11:36:09;;;;;;;;;;;;;;;;;;5056457;28;19955;-69
2023/04/02 11:38:35;;;;;;;;;;;;;;;;;;5056421;28;20018;-67
2023/04/02 11:41:01;;;;;;;;;;;;;;;;;;5056417;28;19956;-68
2023/04/02 11:43:27;;;;;;;;;;;;;;;;;;5056091;28;19955;-68
2023/04/02 11:45:53;;;;;;;;;;;;;;;;;;5056312;28;20009;-68
2023/04/02 11:48:19;;;;;;;;;;;;;;;;;;5056508;28;19956;-68
2023/04/02 11:50:45;;;;;;;;;;;;;;;;;;5056129;28;19976;-67
2023/04/02 11:53:11;;;;;;;;;;;;;;;;;;5056201;28;20051;-68
2023/04/02 11:55:37;;;;;;;;;;;;;;;;;;5056136;28;19955;-69
2023/04/02 11:58:03;;;;;;;;;;;;;;;;;;5056328;28;20010;-68
2023/04/02 12:00:29;;;;;;;;;;;;;;;;;;5056606;28;19956;-68
2023/04/02 12:02:55;;;;;;;;;;;;;;;;;;5056195;28;19955;-68
2023/04/02 12:05:21;;;;;;;;;;;;;;;;;;5056482;28;19963;-68
2023/04/02 12:07:50;;;;;;;;;;;;;;;;;;5055819;28;20280;-69
2023/04/02 12:10:16;;;;;;;;;;;;;;;;;;5056043;28;20026;-69
2023/04/02 12:12:42;;;;;;;;;;;;;;;;;;5055824;28;19959;-69
2023/04/02 12:15:09;;;;;;;;;;;;;;;;;;5056089;28;19955;-68
2023/04/02 12:17:35;;;;;;;;;;;;;;;;;;5056014;28;20366;-67
2023/04/02 12:20:01;;;;;;;;;;;;;;;;;;5055826;28;19962;-67
2023/04/02 12:22:27;;;;;;;;;;;;;;;;;;5055186;28;19992;-67
2023/04/02 12:24:53;;;;;;;;;;;;;;;;;;5055912;28;19954;-68
2023/04/02 12:27:21;;;;;;;;;;;;;;;;;;5055520;28;19956;-68
2023/04/02 12:29:47;;;;;;;;;;;;;;;;;;5055638;28;19978;-67
2023/04/02 12:32:13;;;;;;;;;;;;;;;;;;5055707;28;20365;-68
2023/04/02 12:34:39;;;;;;;;;;;;;;;;;;5055406;28;19959;-67
2023/04/02 12:37:05;;;;;;;;;;;;;;;;;;5054056;28;19960;-69
2023/04/02 12:39:31;;;;;;;;;;;;;;;;;;5055889;28;19956;-68
2023/04/02 12:41:57;;;;;;;;;;;;;;;;;;5055576;28;19960;-69
2023/04/02 12:44:25;;;;;;;;;;;;;;;;;;5055234;28;19956;-69
2023/04/02 12:46:51;;;;;;;;;;;;;;;;;;5055469;28;19970;-69
2023/04/02 12:49:17;;;;;;;;;;;;;;;;;;5055002;28;19974;-69
2023/04/02 12:51:43;;;;;;;;;;;;;;;;;;5055084;28;19955;-67
2023/04/02 12:54:08;;;;;;;;;;;;;;;;;;5054399;28;19955;-68
2023/04/02 12:56:35;;;;;;;;;;;;;;;;;;5053720;28;20069;-68
2023/04/02 12:59:01;;;;;;;;;;;;;;;;;;5054911;28;19966;-68
2023/04/02 13:01:27;;;;;;;;;;;;;;;;;;5055136;28;20050;-68
2023/04/02 13:03:53;;;;;;;;;;;;;;;;;;5054819;28;19955;-69
2023/04/02 13:06:18;;;;;;;;;;;;;;;;;;5055014;28;19962;-69
2023/04/02 13:08:45;;;;;;;;;;;;;;;;;;5054933;28;19956;-68
2023/04/02 13:11:10;;;;;;;;;;;;;;;;;;5054632;28;19956;-68
2023/04/02 13:13:36;;;;;;;;;;;;;;;;;;5054874;28;19959;-67
2023/04/02 13:16:02;;;;;;;;;;;;;;;;;;5055057;28;19962;-68
2023/04/02 13:18:28;;;;;;;;;;;;;;;;;;5054451;28;20006;-68
2023/04/02 13:20:55;;;;;;;;;;;;;;;;;;5054482;28;19998;-69
2023/04/02 13:23:21;;;;;;;;;;;;;;;;;;5054467;28;19955;-67
2023/04/02 13:25:46;;;;;;;;;;;;;;;;;;5054450;28;19981;-69
2023/04/02 13:28:12;;;;;;;;;;;;;;;;;;5054898;28;19960;-67
2023/04/02 13:30:38;;;;;;;;;;;;;;;;;;5054493;28;20037;-68
2023/04/02 13:33:04;;;;;;;;;;;;;;;;;;5054271;28;19953;-69
2023/04/02 13:35:31;;;;;;;;;;;;;;;;;;5054394;28;19955;-67
2023/04/02 13:37:57;;;;;;;;;;;;;;;;;;5054497;28;20430;-68
2023/04/02 13:40:23;;;;;;;;;;;;;;;;;;5054449;28;20051;-69
2023/04/02 13:42:49;;;;;;;;;;;;;;;;;;5054041;28;20032;-68
2023/04/02 13:45:15;;;;;;;;;;;;;;;;;;5054669;28;19955;-69
2023/04/02 13:47:41;;;;;;;;;;;;;;;;;;5053945;28;19963;-67
2023/04/02 13:50:07;;;;;;;;;;;;;;;;;;5053909;28;20023;-68
2023/04/02 13:52:32;;;;;;;;;;;;;;;;;;5053986;28;19959;-68
2023/04/02 13:55:00;;;;;;;;;;;;;;;;;;5054183;28;19960;-69
2023/04/02 13:57:26;;;;;;;;;;;;;;;;;;5054461;28;20069;-69
2023/04/02 13:59:51;;;;;;;;;;;;;;;;;;5054085;28;19971;-68
2023/04/02 14:02:17;;;;;;;;;;;;;;;;;;5053828;28;20010;-69
2023/04/02 14:04:43;;;;;;;;;;;;;;;;;;5052549;28;20370;-68
2023/04/02 14:07:09;;;;;;;;;;;;;;;;;;5054278;28;19963;-67
2023/04/02 14:09:35;;;;;;;;;;;;;;;;;;5053660;28;20078;-67
2023/04/02 14:12:02;;;;;;;;;;;;;;;;;;5054500;28;19955;-68
2023/04/02 14:14:28;;;;;;;;;;;;;;;;;;5053580;28;19958;-67
2023/04/02 14:16:54;;;;;;;;;;;;;;;;;;5053639;28;19962;-67
2023/04/02 14:19:20;;;;;;;;;;;;;;;;;;5053580;28;20363;-68
2023/04/02 14:21:46;;;;;;;;;;;;;;;;;;5053530;28;19990;-68
2023/04/02 14:24:11;;;;;;;;;;;;;;;;;;5054101;28;20488;-68
2023/04/02 14:26:38;;;;;;;;;;;;;;;;;;5053493;28;20438;-68
2023/04/02 14:29:04;;;;;;;;;;;;;;;;;;5053582;28;20065;-67
2023/04/02 14:31:31;;;;;;;;;;;;;;;;;;5053796;28;20048;-67
2023/04/02 14:33:57;;;;;;;;;;;;;;;;;;5053473;28;19963;-68
2023/04/02 14:36:23;;;;;;;;;;;;;;;;;;5053474;28;19956;-68
2023/04/02 14:38:49;;;;;;;;;;;;;;;;;;5054009;28;19961;-69
2023/04/02 14:41:15;;;;;;;;;;;;;;;;;;5053424;28;20381;-68
2023/04/02 14:43:41;;;;;;;;;;;;;;;;;;5053973;28;20471;-69
2023/04/02 14:46:07;;;;;;;;;;;;;;;;;;5053361;28;19955;-68
2023/04/02 14:48:33;;;;;;;;;;;;;;;;;;5053617;28;20319;-67
2023/04/02 14:50:59;;;;;;;;;;;;;;;;;;5053234;28;20113;-68
2023/04/02 14:53:25;;;;;;;;;;;;;;;;;;5053329;28;19997;-69
2023/04/02 14:55:51;;;;;;;;;;;;;;;;;;5053804;28;20461;-68
2023/04/02 14:58:16;;;;;;;;;;;;;;;;;;5053259;28;20046;-68
2023/04/02 15:00:42;;;;;;;;;;;;;;;;;;5053484;28;20070;-68
2023/04/02 15:03:09;;;;;;;;;;;;;;;;;;5053130;28;20323;-69
2023/04/02 15:05:35;;;;;;;;;;;;;;;;;;5053471;28;19961;-67
2023/04/02 15:08:01;;;;;;;;;;;;;;;;;;5053169;28;19956;-67
2023/04/02 15:10:26;;;;;;;;;;;;;;;;;;5053068;28;19975;-68
2023/04/02 15:12:52;;;;;;;;;;;;;;;;;;5053046;28;20124;-68
2023/04/02 15:15:18;;;;;;;;;;;;;;;;;;5053646;28;19954;-69
2023/04/02 15:17:44;;;;;;;;;;;;;;;;;;5055288;28;20420;-67
2023/04/02 15:20:10;;;;;;;;;;;;;;;;;;5057081;28;19955;-69
2023/04/02 15:22:36;;;;;;;;;;;;;;;;;;5056581;28;20469;-68
2023/04/02 15:25:02;;;;;;;;;;;;;;;;;;5057039;28;19960;-68
2023/04/02 15:27:28;;;;;;;;;;;;;;;;;;5056714;28;20308;-68
2023/04/02 15:29:54;;;;;;;;;;;;;;;;;;5056534;28;20006;-67
2023/04/02 15:32:20;;;;;;;;;;;;;;;;;;5056894;28;19955;-68
2023/04/02 15:34:46;;;;;;;;;;;;;;;;;;5056570;28;19954;-68
2023/04/02 15:37:12;;;;;;;;;;;;;;;;;;5056545;28;19965;-67
2023/04/02 15:39:38;;;;;;;;;;;;;;;;;;5056765;28;20442;-67
2023/04/02 15:42:04;;;;;;;;;;;;;;;;;;5056438;28;19955;-68
2023/04/02 15:44:30;;;;;;;;;;;;;;;;;;5056630;28;20050;-68
2023/04/02 15:46:56;;;;;;;;;;;;;;;;;;5056606;28;20390;-67
2023/04/02 15:49:21;;;;;;;;;;;;;;;;;;5056780;28;19982;-68
2023/04/02 15:51:47;;;;;;;;;;;;;;;;;;5056219;28;19956;-67
2023/04/02 15:54:13;;;;;;;;;;;;;;;;;;5056211;28;19956;-68
2023/04/02 15:56:39;;;;;;;;;;;;;;;;;;5056349;28;19965;-69
2023/04/02 15:59:05;;;;;;;;;;;;;;;;;;5056347;28;19956;-68
2023/04/02 16:01:31;;;;;;;;;;;;;;;;;;5056035;28;19997;-68
2023/04/02 16:03:57;;;;;;;;;;;;;;;;;;5054693;28;19990;-68
2023/04/02 16:06:24;;;;;;;;;;;;;;;;;;5056493;28;20481;-68
2023/04/02 16:08:51;;;;;;;;;;;;;;;;;;5055835;28;20470;-68
2023/04/02 16:11:17;;;;;;;;;;;;;;;;;;5056426;28;20319;-67
2023/04/02 16:13:43;;;;;;;;;;;;;;;;;;5055828;28;19963;-68
2023/04/02 16:16:09;;;;;;;;;;;;;;;;;;5056085;28;19954;-69
2023/04/02 16:18:35;;;;;;;;;;;;;;;;;;5055762;28;19953;-67
2023/04/02 16:21:01;;;;;;;;;;;;;;;;;;5055646;28;19999;-69
2023/04/02 16:23:27;;;;;;;;;;;;;;;;;;5056203;28;19958;-68
2023/04/02 16:25:56;;;;;;;;;;;;;;;;;;5055565;28;19959;-68
2023/04/02 16:28:21;;;;;;;;;;;;;;;;;;5054444;28;19954;-69
2023/04/02 16:30:47;;;;;;;;;;;;;;;;;;5055606;28;19984;-67
2023/04/02 16:33:13;;;;;;;;;;;;;;;;;;5055768;28;19963;-67
2023/04/02 16:35:39;;;;;;;;;;;;;;;;;;5055598;28;19990;-68
2023/04/02 16:38:06;;;;;;;;;;;;;;;;;;5055248;28;19977;-67